Bunn, NC

8:32 PM EST on February 28, 2015 (GMT -0500)
Rigby's Folly | Change Station
CLOSE
Current Station
Personal Weather Station
Location: Spring Hope, NC
Elevation: 315 ft
Nearby Weather Stations
Active Advisory: Winter Weather Advisory

Elev 315 ft 35.89 °N, 78.23 °W | Updated 2 minutes ago

Clear
Clear
28.2 °F
Feels Like 28 °F
N
0.0
Wind Variable Wind from ENE
Gusts 1.0 mph

Today
High -- | Low -- °F
--% Chance of Precip.
Yesterday
High -- | Low -- °F
Precip. -- in
6:44 AM 6:06 PM
Waxing Gibbous, 81% visible
Pressure 30.71 in
Visibility 10.0 miles
Clouds Clear
Windchill 28 °F
Dew Point 22 °F
Humidity 76%
Rainfall 0.00 in
Snow Depth Not available.
UV 0 out of 12
Pollen 3.10 out of 12
Air Quality Not available.
Flu Activity Not available.
METAR KLHZ 010115Z AUTO 00000KT 10SM CLR 00/M09 A3071 RMK AO2

More Conditions Fewer Conditions

Pressure 30.71 in
Visibility 10.0 miles
Clouds Clear
Windchill 28 °F
Dew Point 22 °F
Humidity 76%
Rainfall 0.00 in
Snow Depth Not available.
UV 0 out of 12
Pollen 3.10 out of 12
Air Quality Not available.
Flu Activity Not available.
METAR KLHZ 010115Z AUTO 00000KT 10SM CLR 00/M09 A3071 RMK AO2

More Conditions Fewer Conditions

10-Day Weather Forecast

Almanac

Astronomy

Feb. 28, 2015 Rise Set
Actual Time
Civil Twilight
Nautical Twilight
Astronomical Twilight
Moon
Length of Visible Light
Length of Day
Tomorrow will be .
, % of the Moon is Illuminated

Today's Extremes

State Highs State Lows

Community

WunderPhotos

Upload Photos

1,801,233 photos uploaded!

WunderBlogs® & News

Nearby

Air Quality

  Air Quality AQ Index Pollutant
Not available.

Snow Depth

Station Depth Elevation

Earthquake Activity

City Distance Mag. Time & Date
Minimum magnitude displayed is 2.5.

Coastal Water Temperatures

Place Temperature

Nearby Weather Stations

Winter Weather Advisory
Statement as of 3:49 PM EST on February 28, 2015

... Winter Weather Advisory in effect from 4 am to noon EST
Sunday...

The National Weather Service in Raleigh has issued a Winter
Weather Advisory... which is in effect from 4 am to noon EST
Sunday.

* Locations... much of the Piedmont of North Carolina including
Albemarle... Troy... Southern Pines... Siler City... the
Triangle... Oxford... Henderson... and Warrenton.

* Hazard types... mainly freezing rain and freezing drizzle.

* Accumulations... ice accumulations of a trace to less than a
tenth of an inch is expected.

* Timing... very late tonight through noon Sunday.

* Impacts... a thin coating of ice on roads and sidewalks will make
travel treacherous through Sunday morning.

* Winds... northeast 5 mph or less.

* Temperatures... mainly in the upper 20s.

Precautionary/preparedness actions...

A Winter Weather Advisory means that periods of freezing rain or
freezing drizzle will cause travel difficulties. Be prepared for
slippery roads... and use extra caution while driving.